Time;durP1;ratioP1;P1;durP2;ratioP2;P2;SDS_P1;SDS_P2;PMS_P1;PMS_P2;Temp;Humidity;BMP_temperature;BMP_pressure;BME280_temperature;BME280_humidity;BME280_pressure;Samples;Min_cycle;Max_cycle;Signal;HPM_P1;HPM_P2
2023/01/04 00:01:59;;;;;;;18.88;17.98;;;;;;;;;;5110184;28;20233;-81
2023/01/04 00:04:28;;;;;;;20.37;18.60;;;;;;;;;;5101695;28;20212;-80
2023/01/04 00:06:55;;;;;;;19.80;18.60;;;;;;;;;;5103242;28;20479;-81
2023/01/04 00:09:22;;;;;;;19.50;18.40;;;;;;;;;;5103084;28;20519;-81
2023/01/04 00:11:49;;;;;;;20.37;18.80;;;;;;;;;;5103195;28;20426;-81
2023/01/04 00:14:17;;;;;;;20.00;18.57;;;;;;;;;;5102725;28;20462;-80
2023/01/04 00:16:45;;;;;;;18.57;17.63;;;;;;;;;;5103107;28;20461;-81
2023/01/04 00:19:12;;;;;;;20.15;18.77;;;;;;;;;;5100740;28;20454;-81
2023/01/04 00:21:41;;;;;;;19.70;18.50;;;;;;;;;;5099927;28;20222;-80
2023/01/04 00:24:10;;;;;;;21.77;20.40;;;;;;;;;;5099806;28;20448;-80
2023/01/04 00:26:37;;;;;;;19.63;18.43;;;;;;;;;;5099979;28;20464;-81
2023/01/04 00:29:05;;;;;;;19.30;18.20;;;;;;;;;;5099515;28;20512;-81
2023/01/04 00:31:32;;;;;;;20.95;18.75;;;;;;;;;;5103247;28;20402;-79
2023/01/04 00:34:00;;;;;;;19.33;18.33;;;;;;;;;;5099878;28;20202;-80
2023/01/04 00:36:28;;;;;;;19.47;18.27;;;;;;;;;;5099095;28;20430;-79
2023/01/04 00:39:06;;;;;;;20.02;18.13;;;;;;;;;;5101841;28;20439;-79
2023/01/04 00:41:34;;;;;;;19.50;18.30;;;;;;;;;;5100318;28;20270;-80
2023/01/04 00:44:03;;;;;;;21.30;19.67;;;;;;;;;;5099944;28;20449;-79
2023/01/04 00:46:30;;;;;;;19.13;18.13;;;;;;;;;;5099034;28;20442;-79
2023/01/04 00:48:57;;;;;;;20.07;18.77;;;;;;;;;;5100510;28;20490;-80
2023/01/04 00:51:24;;;;;;;19.75;18.30;;;;;;;;;;5101116;28;20486;-80
2023/01/04 00:53:52;;;;;;;19.70;18.20;;;;;;;;;;5098949;28;20213;-79
2023/01/04 00:56:20;;;;;;;24.13;20.60;;;;;;;;;;5099560;28;20234;-79
2023/01/04 00:58:47;;;;;;;19.42;18.35;;;;;;;;;;5098877;28;20422;-79
2023/01/04 01:01:15;;;;;;;21.60;20.20;;;;;;;;;;5098735;28;20216;-80
2023/01/04 01:03:43;;;;;;;20.17;18.97;;;;;;;;;;5098018;28;20471;-80
2023/01/04 01:06:11;;;;;;;20.80;19.43;;;;;;;;;;5098546;28;20469;-79
2023/01/04 01:08:38;;;;;;;21.27;19.98;;;;;;;;;;5099097;28;20448;-80
2023/01/04 01:11:06;;;;;;;20.53;19.23;;;;;;;;;;5099444;28;20255;-80
2023/01/04 01:13:34;;;;;;;20.95;19.50;;;;;;;;;;5097373;28;20910;-79
2023/01/04 01:16:05;;;;;;;20.13;19.03;;;;;;;;;;5098391;28;20229;-80
2023/01/04 01:18:32;;;;;;;20.80;19.30;;;;;;;;;;5098192;28;20475;-80
2023/01/04 01:20:59;;;;;;;19.52;18.50;;;;;;;;;;5099234;28;20218;-80
2023/01/04 01:23:26;;;;;;;20.33;19.13;;;;;;;;;;5098524;28;20231;-80
2023/01/04 01:25:53;;;;;;;20.20;18.90;;;;;;;;;;5098040;28;20468;-81
2023/01/04 01:28:20;;;;;;;19.50;18.27;;;;;;;;;;5099145;28;20497;-80
2023/01/04 01:30:48;;;;;;;20.02;18.63;;;;;;;;;;5099029;28;20241;-80
2023/01/04 01:33:15;;;;;;;19.30;18.40;;;;;;;;;;5098544;28;20209;-80
2023/01/04 01:35:42;;;;;;;19.83;18.53;;;;;;;;;;5098359;28;20202;-80
2023/01/04 01:38:09;;;;;;;20.60;19.37;;;;;;;;;;5100885;28;20464;-80
2023/01/04 01:40:41;;;;;;;21.13;19.73;;;;;;;;;;5099203;28;20946;-80
2023/01/04 01:43:12;;;;;;;21.37;19.90;;;;;;;;;;5098139;28;20412;-80
2023/01/04 01:45:39;;;;;;;19.30;18.30;;;;;;;;;;5098717;28;20440;-80
2023/01/04 01:48:11;;;;;;;21.20;19.70;;;;;;;;;;5100658;28;20472;-80
2023/01/04 01:50:40;;;;;;;19.88;18.70;;;;;;;;;;5099111;28;20476;-80
2023/01/04 01:53:08;;;;;;;21.87;20.17;;;;;;;;;;5098903;28;20223;-80
2023/01/04 01:55:35;;;;;;;20.17;18.97;;;;;;;;;;5103850;28;20451;-80
2023/01/04 01:58:03;;;;;;;21.37;19.93;;;;;;;;;;5098707;28;21059;-81
2023/01/04 02:00:30;;;;;;;21.30;20.10;;;;;;;;;;5101185;28;20414;-80
2023/01/04 02:03:00;;;;;;;24.93;22.67;;;;;;;;;;5097940;28;20431;-81
2023/01/04 02:05:29;;;;;;;24.70;22.10;;;;;;;;;;5101218;28;20431;-80
2023/01/04 02:07:56;;;;;;;19.30;18.07;;;;;;;;;;5104203;28;20467;-80
2023/01/04 02:10:23;;;;;;;19.90;18.70;;;;;;;;;;5103539;28;20479;-80
2023/01/04 02:12:51;;;;;;;19.57;18.37;;;;;;;;;;5103932;28;20206;-80
2023/01/04 02:15:18;;;;;;;22.27;19.90;;;;;;;;;;5105841;28;20450;-80
2023/01/04 02:17:49;;;;;;;19.33;18.13;;;;;;;;;;5110519;28;20501;-81
2023/01/04 02:20:37;;;;;;;20.70;19.20;;;;;;;;;;5103663;28;20442;-80
2023/01/04 02:23:22;;;;;;;18.80;17.70;;;;;;;;;;5104358;28;20399;-81
2023/01/04 02:26:07;;;;;;;20.97;19.30;;;;;;;;;;5103236;28;20468;-81
2023/01/04 02:28:43;;;;;;;19.83;18.43;;;;;;;;;;5106015;28;20933;-81
2023/01/04 02:31:20;;;;;;;20.03;18.60;;;;;;;;;;5109016;28;20461;-80
2023/01/04 02:33:50;;;;;;;21.17;19.50;;;;;;;;;;5104047;28;20418;-80
2023/01/04 02:36:19;;;;;;;21.87;19.90;;;;;;;;;;5108108;28;20463;-80
2023/01/04 02:38:58;;;;;;;21.37;19.73;;;;;;;;;;5104880;28;20505;-81
2023/01/04 02:41:27;;;;;;;19.03;17.63;;;;;;;;;;5100131;28;20407;-80
2023/01/04 02:46:45;;;;;;;19.63;18.47;;;;;;;;;;5100031;28;20410;-81
2023/01/04 02:51:56;;;;;;;19.17;18.10;;;;;;;;;;5100725;28;20413;-80
2023/01/04 02:54:28;;;;;;;18.57;17.67;;;;;;;;;;5100880;28;20448;-79
2023/01/04 02:57:04;;;;;;;19.00;17.70;;;;;;;;;;5101322;28;20514;-80
2023/01/04 02:59:45;;;;;;;19.30;18.07;;;;;;;;;;5101620;28;20453;-81
2023/01/04 03:07:55;;;;;;;19.30;18.20;;;;;;;;;;5104016;28;20443;-80
2023/01/04 03:10:25;;;;;;;19.60;18.50;;;;;;;;;;5102447;28;20460;-80
2023/01/04 03:12:56;;;;;;;20.23;18.83;;;;;;;;;;5103946;28;20437;-82
2023/01/04 03:15:24;;;;;;;19.67;18.37;;;;;;;;;;5102323;28;20420;-79
2023/01/04 03:17:53;;;;;;;21.20;19.70;;;;;;;;;;5103123;28;20451;-80
2023/01/04 03:20:21;;;;;;;20.33;18.87;;;;;;;;;;5100342;28;20443;-80
2023/01/04 03:36:55;;;;;;;22.20;20.47;;;;;;;;;;5044148;28;20482;-80
2023/01/04 03:50:46;;;;;;;21.13;19.93;;;;;;;;;;5099172;28;20491;-79
2023/01/04 03:53:13;;;;;;;19.30;18.40;;;;;;;;;;5098587;28;20876;-81
2023/01/04 03:55:42;;;;;;;20.13;19.13;;;;;;;;;;5099365;28;20202;-80
2023/01/04 03:58:09;;;;;;;21.45;20.33;;;;;;;;;;5098720;28;20742;-80
2023/01/04 04:00:36;;;;;;;21.80;20.40;;;;;;;;;;5100220;28;20205;-80
2023/01/04 04:03:11;;;;;;;21.97;20.40;;;;;;;;;;5098488;28;20230;-80
2023/01/04 04:08:28;;;;;;;22.73;21.00;;;;;;;;;;5098987;28;20452;-80
2023/01/04 04:10:56;;;;;;;19.80;18.83;;;;;;;;;;5099991;28;20974;-81
2023/01/04 04:13:23;;;;;;;21.00;19.97;;;;;;;;;;5099179;28;20480;-79
2023/01/04 04:15:50;;;;;;;21.80;20.43;;;;;;;;;;5099089;28;20443;-81
2023/01/04 04:18:17;;;;;;;21.20;19.90;;;;;;;;;;5098738;28;21041;-80
2023/01/04 04:20:44;;;;;;;24.35;22.45;;;;;;;;;;5098887;28;20972;-81
2023/01/04 04:23:10;;;;;;;21.37;20.30;;;;;;;;;;5098160;28;20214;-81
2023/01/04 04:25:39;;;;;;;21.88;20.30;;;;;;;;;;5098417;28;20846;-81
2023/01/04 04:28:06;;;;;;;21.95;20.67;;;;;;;;;;5098377;28;20690;-81
2023/01/04 04:30:33;;;;;;;21.60;20.30;;;;;;;;;;5098580;28;20230;-81
2023/01/04 04:33:00;;;;;;;21.00;19.80;;;;;;;;;;5098654;28;20202;-80
2023/01/04 04:35:27;;;;;;;20.27;18.97;;;;;;;;;;5099597;28;20452;-81
2023/01/04 04:37:54;;;;;;;20.57;19.63;;;;;;;;;;5098884;28;20423;-81
2023/01/04 04:43:09;;;;;;;19.73;18.73;;;;;;;;;;5098818;28;20774;-80
2023/01/04 04:45:36;;;;;;;21.33;19.80;;;;;;;;;;5098811;28;20449;-81
2023/01/04 04:48:04;;;;;;;19.20;18.20;;;;;;;;;;5098549;28;20228;-81
2023/01/04 04:50:31;;;;;;;18.37;17.50;;;;;;;;;;5098823;28;20486;-80
2023/01/04 04:52:58;;;;;;;18.27;17.43;;;;;;;;;;5098016;28;20487;-81
2023/01/04 04:55:25;;;;;;;18.80;17.90;;;;;;;;;;5098638;28;20528;-81
2023/01/04 04:57:52;;;;;;;19.42;18.52;;;;;;;;;;5097944;28;20468;-80
2023/01/04 05:00:20;;;;;;;18.50;17.50;;;;;;;;;;5099629;28;20209;-81
2023/01/04 05:02:47;;;;;;;17.73;16.60;;;;;;;;;;5098730;28;20480;-81
2023/01/04 05:05:14;;;;;;;17.40;16.70;;;;;;;;;;5098084;28;20206;-80
2023/01/04 05:07:41;;;;;;;19.27;18.17;;;;;;;;;;5099235;28;20503;-80
2023/01/04 05:10:08;;;;;;;18.10;17.20;;;;;;;;;;5097938;28;20226;-77
2023/01/04 05:15:22;;;;;;;18.80;17.90;;;;;;;;;;5097585;28;20440;-80
2023/01/04 05:17:50;;;;;;;21.60;19.60;;;;;;;;;;5098332;28;20466;-80
2023/01/04 05:20:18;;;;;;;20.30;19.30;;;;;;;;;;5098869;28;20528;-81
2023/01/04 05:22:45;;;;;;;19.80;18.90;;;;;;;;;;5099848;28;20437;-80
2023/01/04 05:25:11;;;;;;;20.80;19.70;;;;;;;;;;5097872;28;20815;-81
2023/01/04 05:27:39;;;;;;;20.47;19.47;;;;;;;;;;5098425;28;20462;-80
2023/01/04 05:32:52;;;;;;;21.10;20.10;;;;;;;;;;5098662;28;20548;-80
2023/01/04 05:35:19;;;;;;;20.43;19.50;;;;;;;;;;5097691;28;20411;-80
2023/01/04 05:37:46;;;;;;;21.30;20.20;;;;;;;;;;5098623;28;20491;-80
2023/01/04 05:40:13;;;;;;;20.23;19.23;;;;;;;;;;5099076;28;20417;-80
2023/01/04 05:42:40;;;;;;;20.37;19.47;;;;;;;;;;5097282;28;20422;-80
2023/01/04 05:45:08;;;;;;;20.80;19.50;;;;;;;;;;5097348;28;20439;-80
2023/01/04 05:47:35;;;;;;;20.37;19.37;;;;;;;;;;5096912;28;20486;-80
2023/01/04 05:50:04;;;;;;;19.80;18.73;;;;;;;;;;5098121;28;20434;-80
2023/01/04 05:52:31;;;;;;;19.73;18.50;;;;;;;;;;5099468;28;20444;-80
2023/01/04 05:54:58;;;;;;;19.33;18.43;;;;;;;;;;5097823;28;20521;-80
2023/01/04 05:57:25;;;;;;;19.03;18.13;;;;;;;;;;5097901;28;20499;-81
2023/01/04 05:59:52;;;;;;;19.80;18.80;;;;;;;;;;5098013;28;20448;-80
2023/01/04 06:02:20;;;;;;;19.10;18.10;;;;;;;;;;5098613;28;20435;-80
2023/01/04 06:04:48;;;;;;;18.30;17.50;;;;;;;;;;5098120;28;20447;-80
2023/01/04 06:07:16;;;;;;;18.53;17.57;;;;;;;;;;5098980;28;20446;-79
2023/01/04 06:09:44;;;;;;;18.47;17.60;;;;;;;;;;5097086;28;20466;-80
2023/01/04 06:12:11;;;;;;;17.63;16.73;;;;;;;;;;5096336;28;20541;-81
2023/01/04 06:14:38;;;;;;;18.17;17.10;;;;;;;;;;5095526;28;21099;-80
2023/01/04 06:17:06;;;;;;;17.67;16.87;;;;;;;;;;5098025;28;20437;-80
2023/01/04 06:19:33;;;;;;;17.47;16.37;;;;;;;;;;5098307;28;20422;-80
2023/01/04 06:22:00;;;;;;;16.70;16.00;;;;;;;;;;5097552;28;20512;-80
2023/01/04 06:24:28;;;;;;;16.77;16.03;;;;;;;;;;5096406;28;20435;-80
2023/01/04 06:26:55;;;;;;;16.67;15.93;;;;;;;;;;5098207;28;20447;-80
2023/01/04 06:29:22;;;;;;;16.80;16.00;;;;;;;;;;5099352;28;20810;-80
2023/01/04 06:31:49;;;;;;;20.37;18.67;;;;;;;;;;5096382;28;20477;-80
2023/01/04 06:34:16;;;;;;;17.23;16.43;;;;;;;;;;5096348;28;20446;-79
2023/01/04 06:36:43;;;;;;;16.37;15.67;;;;;;;;;;5097104;28;20521;-79
2023/01/04 06:39:10;;;;;;;16.97;16.07;;;;;;;;;;5097189;28;20492;-80
2023/01/04 06:41:39;;;;;;;16.30;15.60;;;;;;;;;;5097278;28;20494;-80
2023/01/04 06:44:06;;;;;;;16.90;16.10;;;;;;;;;;5095660;28;20441;-80
2023/01/04 06:46:33;;;;;;;17.60;16.80;;;;;;;;;;5095383;28;20458;-80
2023/01/04 06:49:00;;;;;;;17.27;16.43;;;;;;;;;;5096095;28;20899;-79
2023/01/04 06:51:27;;;;;;;16.53;15.83;;;;;;;;;;5096090;28;20486;-80
2023/01/04 06:53:54;;;;;;;18.30;17.07;;;;;;;;;;5095273;28;20473;-81
2023/01/04 06:56:21;;;;;;;17.40;16.40;;;;;;;;;;5095152;28;20490;-79
2023/01/04 06:58:50;;;;;;;17.17;16.37;;;;;;;;;;5095995;28;20782;-80
2023/01/04 07:01:17;;;;;;;17.07;16.27;;;;;;;;;;5095070;28;20468;-80
2023/01/04 07:03:44;;;;;;;18.13;17.23;;;;;;;;;;5095938;28;20910;-80
2023/01/04 07:06:11;;;;;;;19.13;18.03;;;;;;;;;;5096982;28;20446;-80
2023/01/04 07:08:38;;;;;;;17.53;16.73;;;;;;;;;;5096947;28;20910;-80
2023/01/04 07:11:05;;;;;;;17.40;16.50;;;;;;;;;;5096767;28;20453;-81
2023/01/04 07:13:33;;;;;;;22.13;20.73;;;;;;;;;;5093132;28;20476;-83
2023/01/04 07:16:02;;;;;;;17.90;17.10;;;;;;;;;;5102003;28;20946;-86
2023/01/04 07:18:29;;;;;;;16.57;15.87;;;;;;;;;;5102375;28;20819;-85
2023/01/04 07:20:56;;;;;;;16.63;15.93;;;;;;;;;;5100631;28;20503;-86
2023/01/04 07:23:23;;;;;;;17.60;16.80;;;;;;;;;;5101177;28;20449;-86
2023/01/04 07:25:50;;;;;;;17.10;16.40;;;;;;;;;;5101298;28;20453;-85
2023/01/04 07:29:13;;;;;;;17.50;16.70;;;;;;;;;;5103903;28;20412;-87
2023/01/04 07:31:06;;;;;;;17.63;16.73;;;;;;;;;;5103596;28;20483;-85
2023/01/04 07:33:33;;;;;;;17.30;16.50;;;;;;;;;;5099701;28;20403;-83
2023/01/04 07:36:04;;;;;;;18.13;17.23;;;;;;;;;;5101340;28;20509;-83
2023/01/04 07:38:32;;;;;;;18.47;17.47;;;;;;;;;;5102353;28;20438;-82
2023/01/04 07:40:59;;;;;;;17.60;16.63;;;;;;;;;;5102348;28;20508;-82
2023/01/04 07:43:25;;;;;;;16.87;16.17;;;;;;;;;;5102338;28;20496;-82
2023/01/04 07:45:52;;;;;;;17.53;16.73;;;;;;;;;;5103040;28;20482;-82
2023/01/04 07:48:21;;;;;;;17.93;17.13;;;;;;;;;;5104368;28;20857;-81
2023/01/04 07:50:48;;;;;;;17.50;16.70;;;;;;;;;;5103724;28;20479;-84
2023/01/04 07:53:15;;;;;;;18.40;17.57;;;;;;;;;;5101011;28;20444;-85
2023/01/04 07:55:42;;;;;;;17.13;16.33;;;;;;;;;;5096926;28;20459;-78
2023/01/04 07:58:09;;;;;;;36.23;33.50;;;;;;;;;;5096107;28;20425;-78
2023/01/04 08:00:36;;;;;;;18.20;17.30;;;;;;;;;;5097301;28;20452;-80
2023/01/04 08:03:03;;;;;;;92.57;67.33;;;;;;;;;;5096027;28;20468;-79
2023/01/04 08:05:33;;;;;;;25.20;23.27;;;;;;;;;;5096540;28;20455;-79
2023/01/04 08:08:00;;;;;;;17.73;16.93;;;;;;;;;;5096957;28;20448;-79
2023/01/04 08:10:27;;;;;;;17.67;16.90;;;;;;;;;;5097371;28;20440;-78
2023/01/04 08:12:54;;;;;;;18.37;17.57;;;;;;;;;;5096716;28;20492;-79
2023/01/04 08:15:21;;;;;;;19.00;18.20;;;;;;;;;;5096501;28;20496;-80
2023/01/04 08:17:48;;;;;;;20.07;19.17;;;;;;;;;;5096923;28;20443;-79
2023/01/04 08:20:15;;;;;;;21.87;20.60;;;;;;;;;;5097630;28;20437;-79
2023/01/04 08:22:43;;;;;;;21.27;20.37;;;;;;;;;;5096663;28;20479;-79
2023/01/04 08:25:11;;;;;;;22.20;21.20;;;;;;;;;;5096644;28;20452;-79
2023/01/04 08:27:38;;;;;;;23.90;22.80;;;;;;;;;;5102102;28;20472;-85
2023/01/04 08:30:05;;;;;;;21.80;20.70;;;;;;;;;;5101464;28;20418;-78
2023/01/04 08:32:33;;;;;;;21.70;20.70;;;;;;;;;;5097663;28;20479;-89
2023/01/04 08:35:00;;;;;;;22.90;21.77;;;;;;;;;;5099052;28;20509;-87
2023/01/04 08:37:30;;;;;;;22.37;21.37;;;;;;;;;;5101273;28;21028;-88
2023/01/04 08:39:58;;;;;;;21.37;20.47;;;;;;;;;;5102016;28;20456;-87
2023/01/04 08:42:25;;;;;;;21.50;20.50;;;;;;;;;;5101282;28;20441;-88
2023/01/04 08:44:52;;;;;;;21.20;20.30;;;;;;;;;;5099089;28;20462;-88
2023/01/04 08:47:19;;;;;;;21.40;20.40;;;;;;;;;;5100529;28;20448;-83
2023/01/04 08:49:46;;;;;;;21.03;20.13;;;;;;;;;;5101953;28;20520;-88
2023/01/04 08:52:14;;;;;;;20.80;19.90;;;;;;;;;;5099636;28;20446;-77
2023/01/04 08:54:41;;;;;;;20.57;19.67;;;;;;;;;;5098542;28;20448;-77
2023/01/04 08:57:10;;;;;;;20.10;19.20;;;;;;;;;;5101958;28;20521;-80
2023/01/04 08:59:37;;;;;;;20.43;19.53;;;;;;;;;;5102621;28;20420;-88
2023/01/04 09:02:04;;;;;;;20.97;19.97;;;;;;;;;;5098249;28;20431;-80
2023/01/04 09:04:30;;;;;;;20.10;19.10;;;;;;;;;;5095591;28;20946;-79
2023/01/04 09:06:57;;;;;;;21.00;20.00;;;;;;;;;;5095516;28;20973;-77
2023/01/04 09:09:24;;;;;;;20.17;19.27;;;;;;;;;;5095120;28;20448;-78
2023/01/04 09:11:51;;;;;;;20.00;19.10;;;;;;;;;;5094788;28;20462;-79
2023/01/04 09:14:20;;;;;;;19.53;18.63;;;;;;;;;;5094330;28;20469;-78
2023/01/04 09:16:47;;;;;;;19.70;18.90;;;;;;;;;;5095557;28;20476;-78
2023/01/04 09:19:14;;;;;;;19.50;18.70;;;;;;;;;;5096089;28;20451;-79
2023/01/04 09:21:41;;;;;;;19.20;18.40;;;;;;;;;;5096288;28;20456;-79
2023/01/04 09:24:08;;;;;;;19.27;18.47;;;;;;;;;;5097813;28;20455;-78
2023/01/04 09:26:35;;;;;;;19.23;18.43;;;;;;;;;;5099780;28;20455;-79
2023/01/04 09:29:02;;;;;;;19.80;18.90;;;;;;;;;;5095942;28;20459;-79
2023/01/04 09:31:31;;;;;;;18.80;18.00;;;;;;;;;;5095739;28;20480;-79
2023/01/04 09:33:58;;;;;;;19.13;18.13;;;;;;;;;;5099014;28;20444;-84
2023/01/04 09:36:25;;;;;;;18.43;17.63;;;;;;;;;;5100522;28;20436;-84
2023/01/04 09:38:52;;;;;;;18.00;17.20;;;;;;;;;;5100699;28;20428;-84
2023/01/04 09:41:23;;;;;;;19.10;18.20;;;;;;;;;;5100649;28;20449;-86
2023/01/04 09:43:51;;;;;;;18.13;17.33;;;;;;;;;;5100517;28;20465;-83
2023/01/04 09:46:22;;;;;;;18.30;17.50;;;;;;;;;;5100780;28;20460;-85
2023/01/04 09:48:52;;;;;;;18.40;17.60;;;;;;;;;;5100440;28;20436;-85
2023/01/04 09:51:20;;;;;;;17.77;17.07;;;;;;;;;;5100238;28;20432;-83
2023/01/04 09:53:49;;;;;;;18.60;17.70;;;;;;;;;;5098674;28;20407;-83
2023/01/04 09:56:19;;;;;;;17.53;16.73;;;;;;;;;;5095546;28;21023;-78
2023/01/04 09:58:46;;;;;;;18.73;17.87;;;;;;;;;;5097648;28;20419;-83
2023/01/04 10:01:14;;;;;;;19.00;18.20;;;;;;;;;;5098513;28;20427;-79
2023/01/04 10:03:43;;;;;;;19.10;18.30;;;;;;;;;;5099604;28;20406;-79
2023/01/04 10:06:14;;;;;;;20.20;19.30;;;;;;;;;;5098416;28;20464;-79
2023/01/04 10:08:42;;;;;;;19.93;19.00;;;;;;;;;;5099060;28;20448;-80
2023/01/04 10:11:16;;;;;;;20.40;19.40;;;;;;;;;;5098039;28;20497;-84
2023/01/04 10:13:58;;;;;;;21.47;20.47;;;;;;;;;;5097310;28;20420;-87
2023/01/04 10:16:33;;;;;;;21.80;20.80;;;;;;;;;;5101158;28;20536;-86
2023/01/04 10:19:05;;;;;;;23.33;22.23;;;;;;;;;;5101199;28;20425;-84
2023/01/04 10:21:38;;;;;;;23.00;21.90;;;;;;;;;;5093400;28;20986;-77
2023/01/04 10:24:11;;;;;;;24.93;23.63;;;;;;;;;;5093028;28;20874;-77
2023/01/04 10:26:40;;;;;;;24.80;23.60;;;;;;;;;;5093572;28;20485;-79
2023/01/04 10:29:24;;;;;;;25.40;24.20;;;;;;;;;;5097355;28;20435;-79
2023/01/04 10:31:53;;;;;;;27.40;26.00;;;;;;;;;;5097710;28;20845;-89
2023/01/04 10:34:23;;;;;;;28.23;26.93;;;;;;;;;;5098101;28;20419;-89
2023/01/04 10:36:54;;;;;;;25.73;24.43;;;;;;;;;;5100599;28;20442;-83
2023/01/04 10:39:22;;;;;;;25.90;24.70;;;;;;;;;;5100314;28;20489;-84
2023/01/04 10:41:52;;;;;;;26.37;25.17;;;;;;;;;;5100156;28;20501;-85
2023/01/04 10:44:25;;;;;;;25.70;24.50;;;;;;;;;;5099084;28;20743;-78
2023/01/04 10:46:58;;;;;;;31.60;30.03;;;;;;;;;;5098468;28;20480;-78
2023/01/04 10:49:29;;;;;;;27.50;26.20;;;;;;;;;;5095576;28;20817;-79
2023/01/04 10:51:59;;;;;;;29.50;28.10;;;;;;;;;;5097479;28;20446;-79
2023/01/04 10:54:29;;;;;;;29.17;27.87;;;;;;;;;;5095336;28;20472;-78
2023/01/04 10:56:59;;;;;;;29.07;27.67;;;;;;;;;;5096347;28;20969;-79
2023/01/04 10:59:30;;;;;;;30.93;29.50;;;;;;;;;;5097404;28;20460;-79
2023/01/04 11:02:00;;;;;;;30.83;29.37;;;;;;;;;;5099125;28;20412;-82
2023/01/04 11:04:30;;;;;;;28.80;27.40;;;;;;;;;;5098587;28;20478;-80
2023/01/04 11:07:03;;;;;;;29.30;27.90;;;;;;;;;;5104356;28;21014;-79
2023/01/04 11:09:33;;;;;;;30.57;29.07;;;;;;;;;;5107707;28;20455;-79
2023/01/04 11:12:01;;;;;;;29.40;28.00;;;;;;;;;;5108204;28;20463;-81
2023/01/04 11:14:28;;;;;;;28.83;27.43;;;;;;;;;;5105539;28;20415;-80
2023/01/04 11:16:59;;;;;;;28.07;26.70;;;;;;;;;;5104255;28;20466;-80
2023/01/04 11:19:26;;;;;;;28.20;26.80;;;;;;;;;;5103647;28;20403;-80
2023/01/04 11:21:55;;;;;;;27.30;25.87;;;;;;;;;;5103582;28;20434;-81
2023/01/04 11:24:24;;;;;;;26.60;25.30;;;;;;;;;;5102907;28;20462;-81
2023/01/04 11:26:52;;;;;;;27.63;26.23;;;;;;;;;;5103439;28;20501;-83
2023/01/04 11:29:30;;;;;;;28.03;26.63;;;;;;;;;;5101172;28;20422;-81
2023/01/04 11:32:00;;;;;;;31.53;29.93;;;;;;;;;;5104837;28;20472;-80
2023/01/04 11:34:42;;;;;;;37.93;35.97;;;;;;;;;;5103845;28;20451;-80
2023/01/04 11:37:23;;;;;;;36.50;34.60;;;;;;;;;;5104080;28;20460;-81
2023/01/04 11:39:51;;;;;;;38.70;36.60;;;;;;;;;;5100868;28;20448;-77
2023/01/04 11:42:20;;;;;;;38.97;37.07;;;;;;;;;;5098871;28;20440;-88
2023/01/04 11:44:58;;;;;;;40.03;37.93;;;;;;;;;;5099515;28;20582;-78
2023/01/04 11:47:27;;;;;;;38.60;36.70;;;;;;;;;;5100214;28;20419;-79
2023/01/04 11:49:55;;;;;;;39.00;37.00;;;;;;;;;;5100477;28;20496;-79
2023/01/04 11:52:32;;;;;;;40.63;38.40;;;;;;;;;;5098963;28;20505;-88
2023/01/04 11:55:16;;;;;;;39.43;37.43;;;;;;;;;;5097630;28;20417;-88
2023/01/04 11:57:43;;;;;;;41.03;38.83;;;;;;;;;;5098923;28;20454;-79
2023/01/04 12:00:11;;;;;;;40.17;37.90;;;;;;;;;;5096755;28;20436;-78
2023/01/04 12:02:38;;;;;;;41.40;39.20;;;;;;;;;;5097814;28;20840;-78
2023/01/04 12:05:12;;;;;;;40.50;38.50;;;;;;;;;;5096252;28;20483;-79
2023/01/04 12:07:40;;;;;;;39.83;37.83;;;;;;;;;;5097254;28;20513;-78
2023/01/04 12:10:17;;;;;;;40.57;38.50;;;;;;;;;;5097771;28;20464;-78
2023/01/04 12:12:44;;;;;;;36.53;34.73;;;;;;;;;;5097597;28;20882;-79
2023/01/04 12:15:17;;;;;;;38.90;37.00;;;;;;;;;;5098816;28;20482;-79
2023/01/04 12:17:49;;;;;;;37.17;35.20;;;;;;;;;;5097439;28;20484;-78
2023/01/04 12:20:16;;;;;;;37.03;35.27;;;;;;;;;;5097550;28;20452;-79
2023/01/04 12:22:43;;;;;;;38.97;36.90;;;;;;;;;;5097436;28;20426;-78
2023/01/04 12:25:22;;;;;;;40.70;38.60;;;;;;;;;;5097046;28;20470;-78
2023/01/04 12:27:50;;;;;;;38.57;36.67;;;;;;;;;;5097111;28;20463;-79
2023/01/04 12:30:32;;;;;;;40.77;38.77;;;;;;;;;;5098406;28;20851;-78
2023/01/04 12:32:59;;;;;;;40.20;38.30;;;;;;;;;;5099799;28;21041;-89
2023/01/04 12:35:44;;;;;;;40.43;38.47;;;;;;;;;;5099119;28;20456;-79
2023/01/04 12:38:11;;;;;;;39.83;37.93;;;;;;;;;;5100608;28;20451;-78
2023/01/04 12:40:55;;;;;;;37.07;35.27;;;;;;;;;;5101185;28;20419;-78
2023/01/04 12:43:26;;;;;;;40.47;38.27;;;;;;;;;;5103005;28;20418;-78
2023/01/04 12:49:02;;;;;;;38.13;36.23;;;;;;;;;;5101900;28;20442;-79
2023/01/04 12:49:04;;;;;;;40.53;38.53;;;;;;;;;;5103505;28;20454;-79
2023/01/04 12:51:31;;;;;;;43.97;41.87;;;;;;;;;;5104070;28;20424;-79
2023/01/04 12:53:59;;;;;;;44.00;41.87;;;;;;;;;;5102043;28;20459;-79
2023/01/04 12:56:45;;;;;;;44.37;42.27;;;;;;;;;;5102573;28;20442;-78
2023/01/04 12:59:14;;;;;;;40.70;38.70;;;;;;;;;;5100909;28;20426;-79
2023/01/04 13:02:01;;;;;;;42.23;40.23;;;;;;;;;;5102089;28;20486;-79
2023/01/04 13:04:31;;;;;;;42.20;40.20;;;;;;;;;;5100426;28;20465;-78
2023/01/04 13:07:03;;;;;;;44.37;41.97;;;;;;;;;;5101833;28;20520;-79
2023/01/04 13:09:33;;;;;;;41.30;39.23;;;;;;;;;;5100952;28;20411;-79
2023/01/04 13:12:16;;;;;;;40.00;38.00;;;;;;;;;;5100888;28;20407;-79
2023/01/04 13:14:44;;;;;;;42.93;40.83;;;;;;;;;;5100484;28;20453;-78
2023/01/04 13:17:14;;;;;;;41.23;39.23;;;;;;;;;;5102178;28;20518;-78
2023/01/04 13:19:43;;;;;;;40.90;38.90;;;;;;;;;;5103635;28;20498;-79
2023/01/04 13:22:12;;;;;;;39.67;37.77;;;;;;;;;;5103667;28;20461;-79
2023/01/04 13:24:43;;;;;;;42.73;40.60;;;;;;;;;;5103556;28;20455;-79
2023/01/04 13:27:15;;;;;;;40.43;38.43;;;;;;;;;;5101438;28;20493;-78
2023/01/04 13:29:43;;;;;;;40.03;38.13;;;;;;;;;;5104415;28;20421;-79
2023/01/04 13:32:11;;;;;;;45.53;43.23;;;;;;;;;;5105344;28;20454;-80
2023/01/04 13:34:39;;;;;;;43.40;40.97;;;;;;;;;;5104341;28;20513;-79
2023/01/04 13:37:09;;;;;;;40.20;37.80;;;;;;;;;;5102271;28;20430;-79
2023/01/04 13:39:36;;;;;;;39.60;37.70;;;;;;;;;;5102943;28;20468;-78
2023/01/04 13:42:03;;;;;;;38.03;36.13;;;;;;;;;;5101302;28;20824;-78
2023/01/04 13:44:41;;;;;;;38.50;36.50;;;;;;;;;;5100829;28;20981;-79
2023/01/04 13:47:09;;;;;;;39.73;37.27;;;;;;;;;;5102146;28;20451;-78
2023/01/04 13:49:38;;;;;;;39.60;37.40;;;;;;;;;;5100474;28;20442;-78
2023/01/04 13:52:20;;;;;;;41.90;39.80;;;;;;;;;;5102285;28;20445;-78
2023/01/04 13:54:47;;;;;;;38.00;36.00;;;;;;;;;;5102907;28;20433;-78
2023/01/04 13:57:19;;;;;;;39.53;37.53;;;;;;;;;;5101092;28;20534;-79
2023/01/04 13:59:46;;;;;;;38.77;36.80;;;;;;;;;;5102253;28;20763;-78
2023/01/04 14:02:16;;;;;;;40.00;37.57;;;;;;;;;;5101559;28;20449;-79
2023/01/04 14:04:44;;;;;;;42.93;40.63;;;;;;;;;;5100954;28;21017;-78
2023/01/04 14:07:11;;;;;;;42.73;40.17;;;;;;;;;;5099086;28;20871;-79
2023/01/04 14:09:43;;;;;;;42.77;40.47;;;;;;;;;;5100691;28;20529;-78
2023/01/04 14:12:14;;;;;;;42.97;40.77;;;;;;;;;;5100468;28;20471;-78
2023/01/04 14:14:47;;;;;;;39.33;37.23;;;;;;;;;;5101205;28;20443;-79
2023/01/04 14:17:16;;;;;;;39.10;36.93;;;;;;;;;;5100548;28;20530;-79
2023/01/04 14:19:44;;;;;;;38.67;36.77;;;;;;;;;;5101617;28;20425;-78
2023/01/04 14:22:45;;;;;;;36.93;35.13;;;;;;;;;;5101257;28;20449;-79
2023/01/04 14:25:47;;;;;;;34.57;32.90;;;;;;;;;;5102144;28;20420;-78
2023/01/04 14:28:27;;;;;;;34.17;32.47;;;;;;;;;;5058168;28;20903;-79
2023/01/04 14:30:55;;;;;;;35.07;33.37;;;;;;;;;;5058916;28;20473;-79
2023/01/04 14:33:28;;;;;;;34.03;32.43;;;;;;;;;;5083115;28;20482;-78
2023/01/04 14:36:02;;;;;;;31.60;30.10;;;;;;;;;;5103254;28;20489;-78
2023/01/04 14:38:29;;;;;;;31.20;29.70;;;;;;;;;;5102188;28;20816;-79
2023/01/04 14:40:57;;;;;;;31.60;30.00;;;;;;;;;;5103893;28;20438;-79
2023/01/04 14:43:36;;;;;;;30.63;28.80;;;;;;;;;;5103923;28;20422;-79
2023/01/04 14:46:03;;;;;;;31.17;29.60;;;;;;;;;;5105733;28;20450;-79
2023/01/04 14:48:30;;;;;;;29.53;28.13;;;;;;;;;;5105790;28;20423;-79
2023/01/04 14:50:57;;;;;;;29.97;28.47;;;;;;;;;;5106926;28;20474;-79
2023/01/04 14:53:24;;;;;;;30.97;29.47;;;;;;;;;;5107440;28;20954;-80
2023/01/04 14:55:53;;;;;;;29.33;27.77;;;;;;;;;;5105850;28;20464;-80
2023/01/04 14:58:20;;;;;;;29.83;28.33;;;;;;;;;;5108964;28;20472;-79
2023/01/04 15:00:48;;;;;;;27.80;26.40;;;;;;;;;;5106763;28;20486;-80
2023/01/04 15:03:15;;;;;;;30.20;28.50;;;;;;;;;;5108906;28;20444;-81
2023/01/04 15:05:43;;;;;;;27.63;25.60;;;;;;;;;;5107252;28;20427;-80
2023/01/04 15:08:11;;;;;;;28.30;26.77;;;;;;;;;;5105960;28;20497;-80
2023/01/04 15:10:38;;;;;;;27.20;25.77;;;;;;;;;;5106023;28;20536;-80
2023/01/04 15:13:06;;;;;;;26.90;25.60;;;;;;;;;;5102691;28;20964;-81
2023/01/04 15:15:33;;;;;;;24.20;23.00;;;;;;;;;;5103120;28;20452;-80
2023/01/04 15:18:01;;;;;;;25.70;24.50;;;;;;;;;;5103022;28;20984;-79